Time;durP1;ratioP1;P1;durP2;ratioP2;P2;SDS_P1;SDS_P2;PMS_P1;PMS_P2;Temp;Humidity;BMP_temperature;BMP_pressure;BME280_temperature;BME280_humidity;BME280_pressure;Samples;Min_cycle;Max_cycle;Signal;HPM_P1;HPM_P2
2022/11/15 00:00:58;;;;;;;75.35;34.65;;;;;;;5.31;100.00;100622.31;4993896;28;20419;-77
2022/11/15 00:03:42;;;;;;;76.72;34.72;;;;;;;5.33;100.00;100609.78;4987048;28;20056;-77
2022/11/15 00:06:26;;;;;;;73.80;35.28;;;;;;;5.37;100.00;100614.69;4987341;28;20053;-77
2022/11/15 00:09:10;;;;;;;82.90;36.53;;;;;;;5.32;100.00;100611.63;4985579;28;20115;-75
2022/11/15 00:11:54;;;;;;;74.50;35.17;;;;;;;5.29;100.00;100599.47;4994219;28;20099;-77
2022/11/15 00:14:38;;;;;;;76.85;35.78;;;;;;;5.34;100.00;100599.09;4986845;28;20053;-76
2022/11/15 00:17:22;;;;;;;74.10;34.10;;;;;;;5.42;100.00;100601.91;4982998;28;20049;-76
2022/11/15 00:20:06;;;;;;;75.68;33.80;;;;;;;5.38;100.00;100604.94;4989666;28;20539;-75
2022/11/15 00:22:50;;;;;;;72.43;34.28;;;;;;;5.36;100.00;100598.94;4988718;28;20483;-75
2022/11/15 00:25:34;;;;;;;75.45;35.85;;;;;;;5.41;100.00;100605.53;4985145;28;20531;-76
2022/11/15 00:28:19;;;;;;;69.50;33.55;;;;;;;5.34;100.00;100601.72;4989732;28;20049;-77
2022/11/15 00:31:05;;;;;;;81.60;32.65;;;;;;;5.36;100.00;100598.94;4997371;28;20049;-76
2022/11/15 00:33:49;;;;;;;70.00;31.45;;;;;;;5.34;100.00;100599.09;4990669;28;20045;-76
2022/11/15 00:36:34;;;;;;;81.97;36.25;;;;;;;5.31;100.00;100596.69;4984568;28;20068;-76
2022/11/15 00:39:18;;;;;;;77.05;35.78;;;;;;;5.34;100.00;100591.16;4986364;28;20050;-75
2022/11/15 00:42:02;;;;;;;75.30;34.47;;;;;;;5.29;100.00;100586.25;4990057;28;20055;-77
2022/11/15 00:44:46;;;;;;;73.75;33.90;;;;;;;5.33;100.00;100578.88;4986326;28;20149;-76
2022/11/15 00:47:30;;;;;;;78.05;37.20;;;;;;;5.26;100.00;100581.19;4984851;28;20104;-75
2022/11/15 00:50:14;;;;;;;76.15;34.55;;;;;;;5.27;100.00;100585.53;4987277;28;20049;-77
2022/11/15 00:52:58;;;;;;;72.00;33.65;;;;;;;5.27;100.00;100579.41;4989764;28;20041;-77
2022/11/15 00:55:42;;;;;;;81.03;36.38;;;;;;;5.22;100.00;100573.66;4988782;28;20089;-77
2022/11/15 00:58:26;;;;;;;76.00;37.22;;;;;;;5.18;100.00;100581.03;4986628;28;20052;-76
2022/11/15 01:01:13;;;;;;;76.13;36.03;;;;;;;5.19;100.00;100576.56;4984672;28;20056;-77
2022/11/15 01:03:58;;;;;;;78.68;36.90;;;;;;;5.11;100.00;100571.94;4987424;28;20060;-77
2022/11/15 01:06:42;;;;;;;75.85;34.45;;;;;;;5.13;100.00;100571.78;4986727;28;20048;-77
2022/11/15 01:09:26;;;;;;;73.85;34.67;;;;;;;5.07;100.00;100571.34;4984241;28;20149;-77
2022/11/15 01:12:10;;;;;;;76.20;35.95;;;;;;;5.14;100.00;100568.19;4990669;28;20104;-74
2022/11/15 01:14:54;;;;;;;74.00;34.10;;;;;;;5.14;100.00;100562.91;4996453;28;20091;-77
2022/11/15 01:17:38;;;;;;;73.55;33.83;;;;;;;5.10;100.00;100548.25;4984985;28;20173;-77
2022/11/15 01:20:21;;;;;;;76.32;33.80;;;;;;;5.02;100.00;100549.75;4985653;28;20089;-76
2022/11/15 01:23:05;;;;;;;77.40;36.70;;;;;;;5.00;100.00;100556.13;4992332;28;20406;-76
2022/11/15 01:25:49;;;;;;;80.78;36.17;;;;;;;4.98;100.00;100545.69;4988519;28;20132;-75
2022/11/15 01:28:36;;;;;;;81.18;36.35;;;;;;;4.93;100.00;100553.19;4987699;28;20065;-76
2022/11/15 01:31:21;;;;;;;72.05;34.53;;;;;;;4.98;100.00;100563.38;4985428;28;20073;-75
2022/11/15 01:34:05;;;;;;;69.68;32.58;;;;;;;4.89;100.00;100561.50;4990194;28;20521;-75
2022/11/15 01:36:49;;;;;;;77.90;36.90;;;;;;;4.84;100.00;100556.59;4987821;28;20074;-77
2022/11/15 01:39:33;;;;;;;78.53;35.35;;;;;;;4.76;100.00;100553.78;4992254;28;20514;-76
2022/11/15 01:42:18;;;;;;;82.03;38.03;;;;;;;4.70;100.00;100551.63;4986750;28;20057;-77
2022/11/15 01:45:05;;;;;;;80.53;35.95;;;;;;;4.63;100.00;100548.66;4991951;28;20076;-76
2022/11/15 01:47:53;;;;;;;81.18;34.65;;;;;;;4.60;100.00;100546.28;4984117;28;20511;-77
2022/11/15 01:50:37;;;;;;;79.15;36.10;;;;;;;4.52;100.00;100544.31;4984097;28;20137;-77
2022/11/15 01:53:25;;;;;;;84.82;39.10;;;;;;;4.52;100.00;100533.72;4982625;28;20053;-77
2022/11/15 01:56:13;;;;;;;74.70;34.58;;;;;;;4.51;100.00;100534.69;4987674;28;20103;-76
2022/11/15 01:59:02;;;;;;;83.65;36.55;;;;;;;4.44;100.00;100534.34;4981171;28;20053;-76
2022/11/15 02:01:46;;;;;;;83.57;36.60;;;;;;;4.48;100.00;100534.94;4989232;28;20574;-76
2022/11/15 02:04:42;;;;;;;81.18;36.22;;;;;;;4.39;100.00;100530.41;4984084;28;20410;-75
2022/11/15 02:07:29;;;;;;;76.45;36.28;;;;;;;4.41;100.00;100539.06;4983112;28;20246;-76
2022/11/15 02:10:18;;;;;;;84.38;35.63;;;;;;;4.40;100.00;100537.38;4990252;28;20057;-76
2022/11/15 02:13:02;;;;;;;80.18;35.90;;;;;;;4.39;100.00;100541.00;4981653;28;20069;-77
2022/11/15 02:16:09;;;;;;;81.80;34.72;;;;;;;4.38;100.00;100545.44;4984596;28;20048;-77
2022/11/15 02:19:17;;;;;;;76.30;36.35;;;;;;;4.34;100.00;100545.81;4988251;28;20049;-76
2022/11/15 02:22:37;;;;;;;78.22;34.60;;;;;;;4.33;100.00;100546.78;4984714;28;20080;-76
2022/11/15 02:25:35;;;;;;;83.10;37.13;;;;;;;4.31;100.00;100546.91;4945485;28;20072;-75
2022/11/15 02:28:35;;;;;;;94.95;38.33;;;;;;;4.24;100.00;100543.13;4934579;29;20145;-76
2022/11/15 02:31:40;;;;;;;91.93;40.10;;;;;;;4.20;100.00;100534.59;4954326;28;20634;-76
2022/11/15 02:34:43;;;;;;;;;;;;;;;4.21;100.00;100538.91;4927369;29;20535;-76
2022/11/15 02:37:52;;;;;;;91.07;35.15;;;;;;;4.17;100.00;100531.38;4953357;28;19920;-76
2022/11/15 02:41:02;;;;;;;83.65;35.33;;;;;;;4.14;100.00;100524.50;4952570;28;20182;-76
2022/11/15 02:43:58;;;;;;;88.75;38.55;;;;;;;4.08;100.00;100511.81;4952487;28;20090;-76
2022/11/15 02:47:14;;;;;;;78.10;36.33;;;;;;;4.11;100.00;100521.28;4932981;28;20594;-76
2022/11/15 02:50:03;;;;;;;91.43;38.90;;;;;;;4.06;100.00;100521.66;4951978;28;20082;-76
2022/11/15 02:52:49;;;;;;;79.70;34.97;;;;;;;4.08;100.00;100529.47;4951189;28;20101;-75
2022/11/15 02:55:35;;;;;;;78.40;35.08;;;;;;;4.04;100.00;100535.97;4938823;28;20096;-76
2022/11/15 02:58:37;;;;;;;83.15;37.95;;;;;;;3.99;100.00;100528.41;4954012;28;20057;-76
2022/11/15 03:01:47;;;;;;;86.07;35.65;;;;;;;4.03;100.00;100532.50;4963166;28;20105;-76
2022/11/15 03:04:43;;;;;;;86.10;36.75;;;;;;;3.94;100.00;100535.88;4983366;28;20518;-76
2022/11/15 03:07:42;;;;;;;93.70;38.05;;;;;;;3.92;100.00;100538.66;4981496;28;20057;-75
2022/11/15 03:10:40;;;;;;;90.63;36.45;;;;;;;3.89;100.00;100538.06;5006131;28;20053;-76
2022/11/15 03:13:26;;;;;;;88.88;38.42;;;;;;;3.84;100.00;100525.25;4987740;28;20129;-77
2022/11/15 03:16:29;;;;;;;90.15;39.28;;;;;;;3.90;100.00;100534.44;4989990;28;20107;-75
2022/11/15 03:19:31;;;;;;;85.20;37.38;;;;;;;3.83;100.00;100526.19;4985181;28;20112;-75
2022/11/15 03:22:19;;;;;;;87.47;38.58;;;;;;;3.74;100.00;100525.13;4994066;28;20057;-75
2022/11/15 03:25:07;;;;;;;97.57;40.03;;;;;;;3.72;100.00;100529.72;5009234;28;20104;-77
2022/11/15 03:27:55;;;;;;;93.60;41.28;;;;;;;3.73;100.00;100523.44;5003258;28;20102;-75
2022/11/15 03:30:41;;;;;;;90.05;38.75;;;;;;;3.77;100.00;100526.69;5008297;28;20964;-75
2022/11/15 03:33:26;;;;;;;99.05;40.28;;;;;;;3.73;100.00;100519.97;4992540;28;20169;-76
2022/11/15 03:36:10;;;;;;;85.82;37.45;;;;;;;3.69;100.00;100514.09;4989956;28;20522;-76
2022/11/15 03:39:00;;;;;;;94.55;41.45;;;;;;;3.66;100.00;100506.44;4997830;28;20066;-76
2022/11/15 03:41:53;;;;;;;86.50;36.83;;;;;;;3.68;100.00;100525.63;4988277;28;20451;-76
2022/11/15 03:44:45;;;;;;;86.15;35.40;;;;;;;3.70;100.00;100518.44;4988096;28;20049;-75
2022/11/15 03:47:36;;;;;;;91.50;39.13;;;;;;;3.64;100.00;100524.19;4996132;28;20966;-77
2022/11/15 03:50:22;;;;;;;92.40;38.55;;;;;;;3.59;100.00;100521.91;4984757;28;20902;-77
2022/11/15 03:53:06;;;;;;;94.18;39.17;;;;;;;3.61;100.00;100529.72;4991309;28;20053;-75
2022/11/15 03:55:50;;;;;;;96.43;39.85;;;;;;;3.61;100.00;100535.00;4989253;28;20070;-78
2022/11/15 03:58:34;;;;;;;97.15;40.13;;;;;;;3.60;100.00;100528.03;4988081;28;20110;-76
2022/11/15 04:01:18;;;;;;;89.13;37.00;;;;;;;3.60;100.00;100533.31;5000997;28;20061;-76
2022/11/15 04:04:02;;;;;;;95.95;37.88;;;;;;;3.56;100.00;100531.91;5008199;28;20547;-76
2022/11/15 04:06:46;;;;;;;91.55;40.13;;;;;;;3.52;100.00;100533.94;5000211;28;20082;-76
2022/11/15 04:09:30;;;;;;;102.55;40.63;;;;;;;3.43;100.00;100525.91;4992618;28;20108;-76
2022/11/15 04:12:30;;;;;;;96.13;39.58;;;;;;;3.47;100.00;100524.72;4990131;28;20558;-76
2022/11/15 04:15:17;;;;;;;98.70;40.28;;;;;;;3.45;100.00;100516.06;5007665;28;20053;-77
2022/11/15 04:18:01;;;;;;;94.05;38.95;;;;;;;3.46;100.00;100523.03;4988121;28;20100;-77
2022/11/15 04:26:51;;;;;;;99.85;40.03;;;;;;;3.39;100.00;100517.38;5007616;28;20061;-77
2022/11/15 04:29:35;;;;;;;93.88;39.75;;;;;;;3.33;100.00;100520.53;5006633;28;20053;-77
2022/11/15 04:32:19;;;;;;;94.95;38.22;;;;;;;3.41;100.00;100522.56;4993179;28;20097;-76
2022/11/15 04:35:03;;;;;;;97.43;38.22;;;;;;;3.35;100.00;100518.59;4988098;28;20076;-77
2022/11/15 04:37:48;;;;;;;102.07;40.35;;;;;;;3.32;100.00;100514.38;4987215;28;20084;-75
2022/11/15 04:40:32;;;;;;;88.80;37.70;;;;;;;3.28;100.00;100520.06;4988370;28;20057;-76
2022/11/15 04:43:16;;;;;;;93.72;37.92;;;;;;;3.34;100.00;100528.31;5007045;28;20130;-75
2022/11/15 04:46:00;;;;;;;88.78;39.67;;;;;;;3.34;100.00;100527.47;4988232;28;20546;-77
2022/11/15 04:48:44;;;;;;;90.40;39.35;;;;;;;3.28;100.00;100538.53;4987085;28;20116;-77
2022/11/15 04:51:28;;;;;;;90.05;37.88;;;;;;;3.22;100.00;100529.28;4990849;28;20742;-76
2022/11/15 04:54:12;;;;;;;96.90;36.65;;;;;;;3.22;100.00;100526.63;4995178;28;20438;-77
2022/11/15 04:56:56;;;;;;;93.63;38.08;;;;;;;3.23;100.00;100522.19;4990488;28;20080;-75
2022/11/15 04:59:40;;;;;;;88.88;37.72;;;;;;;3.24;100.00;100532.63;4993813;28;20084;-76
2022/11/15 05:02:24;;;;;;;91.03;38.47;;;;;;;3.25;100.00;100523.75;4995150;28;20048;-76
2022/11/15 05:05:08;;;;;;;87.05;37.75;;;;;;;3.25;100.00;100530.84;5007819;28;20142;-76
2022/11/15 05:07:51;;;;;;;87.70;39.42;;;;;;;3.21;100.00;100532.88;4978140;28;20061;-76
2022/11/15 05:10:35;;;;;;;90.15;37.25;;;;;;;3.22;100.00;100525.81;4995709;28;20046;-76
2022/11/15 05:13:19;;;;;;;80.82;37.10;;;;;;;3.24;100.00;100531.81;5007562;28;20852;-76
2022/11/15 05:16:04;;;;;;;83.22;37.72;;;;;;;3.28;100.00;100520.88;5000511;28;20184;-76
2022/11/15 05:18:51;;;;;;;86.32;36.80;;;;;;;3.36;100.00;100526.38;5001181;28;20053;-76
2022/11/15 05:21:35;;;;;;;95.57;40.55;;;;;;;3.45;100.00;100521.34;5006099;28;20096;-77
2022/11/15 05:24:19;;;;;;;84.57;36.13;;;;;;;3.52;100.00;100517.25;4998080;28;20120;-76
2022/11/15 05:27:02;;;;;;;93.20;37.45;;;;;;;3.58;100.00;100524.66;4987582;28;20109;-77
2022/11/15 05:29:46;;;;;;;95.78;37.22;;;;;;;3.65;100.00;100528.50;4987718;28;20053;-77
2022/11/15 05:32:31;;;;;;;90.15;38.45;;;;;;;3.67;100.00;100520.47;4986721;28;20081;-76
2022/11/15 05:35:25;;;;;;;78.60;35.35;;;;;;;3.70;100.00;100529.00;4993760;28;20064;-76
2022/11/15 05:38:09;;;;;;;88.10;35.83;;;;;;;3.70;100.00;100523.72;4996854;28;20076;-76
2022/11/15 05:40:54;;;;;;;89.10;36.05;;;;;;;3.71;100.00;100524.53;4987508;28;20781;-77
2022/11/15 05:43:40;;;;;;;82.15;36.67;;;;;;;3.76;100.00;100528.47;4985379;28;20129;-75
2022/11/15 05:46:24;;;;;;;92.10;37.95;;;;;;;3.76;100.00;100517.91;4986977;28;20057;-74
2022/11/15 05:49:12;;;;;;;85.47;37.17;;;;;;;3.81;100.00;100521.00;4986774;28;20131;-76
2022/11/15 05:51:57;;;;;;;84.60;35.05;;;;;;;3.86;100.00;100520.66;5003362;28;20056;-76
2022/11/15 05:54:41;;;;;;;79.53;36.47;;;;;;;3.87;100.00;100522.34;4986036;28;20058;-76
2022/11/15 05:57:25;;;;;;;88.03;37.20;;;;;;;3.90;100.00;100523.88;4986545;28;20156;-76
2022/11/15 06:00:10;;;;;;;77.05;34.83;;;;;;;3.96;100.00;100512.84;4989814;28;20165;-76
2022/11/15 06:02:53;;;;;;;84.18;35.40;;;;;;;4.01;100.00;100508.00;4989118;28;20407;-76
2022/11/15 06:05:38;;;;;;;74.13;33.10;;;;;;;4.08;100.00;100517.09;4984721;28;20056;-76
2022/11/15 06:08:22;;;;;;;79.43;36.97;;;;;;;4.14;100.00;100511.28;4987311;28;20045;-77
2022/11/15 06:11:07;;;;;;;78.05;35.67;;;;;;;4.17;100.00;100502.31;4988958;28;20189;-76
2022/11/15 06:13:51;;;;;;;74.85;33.00;;;;;;;4.18;100.00;100509.25;4985988;28;20432;-76
2022/11/15 06:16:35;;;;;;;72.05;34.25;;;;;;;4.23;100.00;100510.53;4984814;28;20065;-74
2022/11/15 06:19:19;;;;;;;72.25;33.00;;;;;;;4.27;100.00;100505.03;4986044;28;20057;-75
2022/11/15 06:22:03;;;;;;;71.43;33.45;;;;;;;4.31;100.00;100502.00;4983085;28;20045;-76
2022/11/15 06:24:47;;;;;;;69.35;32.90;;;;;;;4.36;100.00;100498.97;4985920;28;20152;-76
2022/11/15 06:27:30;;;;;;;71.28;31.60;;;;;;;4.39;100.00;100504.81;4982330;28;20057;-76
2022/11/15 06:30:14;;;;;;;70.07;32.58;;;;;;;4.47;100.00;100504.16;4987626;28;20541;-75
2022/11/15 06:33:01;;;;;;;72.28;31.27;;;;;;;4.45;100.00;100514.06;4985881;28;20096;-75
2022/11/15 06:35:45;;;;;;;72.45;33.05;;;;;;;4.51;100.00;100508.22;4993736;28;20061;-76
2022/11/15 06:38:29;;;;;;;79.18;32.30;;;;;;;4.55;100.00;100520.25;4982982;28;20052;-75
2022/11/15 06:41:14;;;;;;;58.13;27.90;;;;;;;4.60;100.00;100512.75;4982705;28;20409;-76
2022/11/15 06:43:58;;;;;;;63.00;29.00;;;;;;;4.60;100.00;100506.63;4995122;28;20057;-76
2022/11/15 06:46:42;;;;;;;61.83;27.67;;;;;;;4.65;100.00;100502.63;4984511;28;20276;-76
2022/11/15 06:49:26;;;;;;;60.03;28.15;;;;;;;4.70;100.00;100518.09;4985026;28;20564;-76
2022/11/15 06:52:10;;;;;;;70.15;32.53;;;;;;;4.71;100.00;100519.78;4987969;28;20404;-75
2022/11/15 06:54:53;;;;;;;62.67;29.13;;;;;;;4.73;100.00;100511.69;4992377;28;20048;-75
2022/11/15 06:57:46;;;;;;;61.35;27.65;;;;;;;4.85;100.00;100511.50;4986969;28;20053;-76
2022/11/15 07:00:30;;;;;;;66.72;29.75;;;;;;;4.89;100.00;100514.72;4991049;28;20135;-76
2022/11/15 07:03:14;;;;;;;63.38;28.50;;;;;;;4.77;100.00;100516.59;4996229;28;20978;-75
2022/11/15 07:05:58;;;;;;;52.53;25.88;;;;;;;4.88;100.00;100521.00;5009659;28;20423;-75
2022/11/15 07:08:42;;;;;;;58.92;27.40;;;;;;;4.84;100.00;100516.91;5008410;28;20085;-76
2022/11/15 07:11:26;;;;;;;59.65;28.67;;;;;;;4.81;100.00;100525.97;4992957;28;20125;-76
2022/11/15 07:14:10;;;;;;;64.03;29.20;;;;;;;4.75;100.00;100501.84;4988996;28;20053;-74
2022/11/15 07:16:53;;;;;;;61.28;27.48;;;;;;;4.75;100.00;100517.69;4988653;28;20692;-76
2022/11/15 07:19:37;;;;;;;61.88;28.65;;;;;;;4.77;100.00;100526.34;4989626;28;20096;-77
2022/11/15 07:22:21;;;;;;;61.40;28.30;;;;;;;4.82;100.00;100524.16;4989735;28;20467;-76
2022/11/15 07:25:06;;;;;;;61.88;28.15;;;;;;;4.85;100.00;100526.56;5009118;28;20053;-76
2022/11/15 07:27:57;;;;;;;62.95;28.50;;;;;;;4.86;100.00;100534.34;4997146;28;20049;-76
2022/11/15 07:30:41;;;;;;;57.15;28.48;;;;;;;4.92;100.00;100538.28;4986541;28;20619;-76
2022/11/15 07:33:25;;;;;;;52.95;27.08;;;;;;;4.97;100.00;100537.88;4988503;28;20077;-76
2022/11/15 07:36:09;;;;;;;57.00;28.17;;;;;;;4.99;100.00;100542.09;4988578;28;20046;-76
2022/11/15 07:38:53;;;;;;;58.10;28.08;;;;;;;5.00;100.00;100545.56;4989094;28;20052;-76
2022/11/15 07:41:38;;;;;;;58.85;28.50;;;;;;;5.05;100.00;100544.19;4988488;28;20169;-77
2022/11/15 07:44:22;;;;;;;53.38;26.40;;;;;;;5.14;100.00;100544.38;4988424;28;20101;-77
2022/11/15 07:47:06;;;;;;;49.47;25.63;;;;;;;5.15;100.00;100553.97;4999099;28;20049;-77
2022/11/15 07:49:50;;;;;;;53.35;25.05;;;;;;;5.23;100.00;100546.22;4989249;28;20057;-76
2022/11/15 07:52:34;;;;;;;56.28;26.02;;;;;;;5.28;100.00;100544.00;4989671;28;20052;-76
2022/11/15 07:55:18;;;;;;;50.72;25.55;;;;;;;5.36;100.00;100546.84;4995910;28;20415;-76
2022/11/15 07:58:04;;;;;;;50.83;26.50;;;;;;;5.36;100.00;100544.19;5007486;28;20103;-76
2022/11/15 08:00:48;;;;;;;56.10;26.85;;;;;;;5.36;100.00;100530.97;5007819;28;20053;-76
2022/11/15 08:03:32;;;;;;;50.67;25.48;;;;;;;5.42;100.00;100538.34;5008583;28;20549;-77
2022/11/15 08:06:16;;;;;;;53.58;25.80;;;;;;;5.50;100.00;100527.94;5008027;28;20069;-76
2022/11/15 08:09:00;;;;;;;49.63;24.13;;;;;;;5.49;100.00;100531.53;4995072;28;20044;-76
2022/11/15 08:11:44;;;;;;;50.60;25.83;;;;;;;5.47;100.00;100528.19;4989116;28;20097;-75
2022/11/15 08:14:28;;;;;;;52.97;27.60;;;;;;;5.48;100.00;100523.75;4988995;28;20132;-75
2022/11/15 08:17:12;;;;;;;49.15;23.92;;;;;;;5.58;100.00;100521.13;4987829;28;20068;-74
2022/11/15 08:19:56;;;;;;;54.72;26.02;;;;;;;5.62;100.00;100523.38;4987940;28;20049;-75
2022/11/15 08:22:40;;;;;;;50.17;26.08;;;;;;;5.59;100.00;100528.09;4988461;28;20049;-76
2022/11/15 08:25:27;;;;;;;47.05;25.17;;;;;;;5.65;100.00;100519.59;4988750;28;20130;-75
2022/11/15 08:28:11;;;;;;;50.05;25.27;;;;;;;5.74;100.00;100517.97;5002333;28;20060;-76
2022/11/15 08:30:55;;;;;;;52.25;25.45;;;;;;;5.89;100.00;100514.75;4988307;28;20077;-75
2022/11/15 08:33:39;;;;;;;46.85;23.13;;;;;;;5.94;100.00;100519.66;4988323;28;20061;-75
2022/11/15 08:36:23;;;;;;;47.22;24.15;;;;;;;5.93;100.00;100510.84;4987401;28;20101;-77
2022/11/15 08:39:11;;;;;;;44.10;22.45;;;;;;;5.98;100.00;100509.66;4985325;28;20861;-77
2022/11/15 08:41:55;;;;;;;45.00;24.20;;;;;;;5.89;100.00;100504.16;4996159;23;20049;-86
2022/11/15 08:44:39;;;;;;;48.00;23.35;;;;;;;5.96;100.00;100506.28;5009095;28;20172;-85
2022/11/15 08:47:23;;;;;;;48.58;22.92;;;;;;;6.12;100.00;100511.88;5009320;28;20133;-87
2022/11/15 08:50:08;;;;;;;47.10;24.47;;;;;;;6.08;100.00;100507.81;5010282;28;20080;-88
2022/11/15 08:52:52;;;;;;;46.38;24.33;;;;;;;6.06;100.00;100502.69;5009481;28;20285;-86
2022/11/15 08:55:37;;;;;;;41.58;21.30;;;;;;;6.08;100.00;100499.88;5009389;28;20048;-86
2022/11/15 08:58:21;;;;;;;43.60;24.75;;;;;;;6.07;100.00;100499.03;5010682;28;20815;-89
2022/11/15 09:01:06;;;;;;;45.28;21.67;;;;;;;6.28;100.00;100508.69;5009283;28;20452;-88
2022/11/15 09:03:50;;;;;;;49.15;22.80;;;;;;;6.27;100.00;100505.16;5010263;28;20191;-88
2022/11/15 09:06:34;;;;;;;44.83;22.98;;;;;;;6.29;100.00;100508.53;5011043;28;20111;-87
2022/11/15 09:09:18;;;;;;;50.78;24.60;;;;;;;6.28;100.00;100508.69;5010552;28;20053;-86
2022/11/15 09:12:02;;;;;;;41.42;23.08;;;;;;;6.37;100.00;100499.03;5009933;28;20136;-88
2022/11/15 09:14:46;;;;;;;46.08;24.75;;;;;;;6.31;100.00;100498.63;5010148;28;20057;-89
2022/11/15 09:17:30;;;;;;;46.08;23.45;;;;;;;6.44;100.00;100505.44;5010792;28;20049;-86
2022/11/15 09:20:15;;;;;;;43.00;21.67;;;;;;;6.49;100.00;100508.53;5011842;28;20072;-87
2022/11/15 09:23:02;;;;;;;36.53;21.17;;;;;;;6.68;100.00;100518.25;5007496;28;20041;-87
2022/11/15 09:25:46;;;;;;;33.40;20.10;;;;;;;6.74;100.00;100504.41;5009820;28;20120;-88
2022/11/15 09:28:31;;;;;;;40.80;21.83;;;;;;;6.75;100.00;100498.13;5010909;28;20045;-87
2022/11/15 09:31:15;;;;;;;31.67;17.05;;;;;;;6.75;100.00;100509.56;5006714;28;20137;-87
2022/11/15 09:33:59;;;;;;;41.05;22.25;;;;;;;6.84;100.00;100513.19;5010684;28;20045;-87
2022/11/15 09:36:43;;;;;;;39.70;20.73;;;;;;;6.89;100.00;100515.41;5010845;28;20084;-86
2022/11/15 09:39:27;;;;;;;43.58;23.20;;;;;;;6.87;100.00;100512.91;5011437;28;20080;-87
2022/11/15 09:42:39;;;;;;;35.38;20.50;;;;;;;6.81;100.00;100513.47;5010701;28;20069;-87
2022/11/15 09:45:30;;;;;;;40.45;19.83;;;;;;;6.84;100.00;100509.72;5021183;28;20088;-87
2022/11/15 09:48:29;;;;;;;40.00;20.17;;;;;;;6.90;100.00;100525.88;5009771;28;20442;-86
2022/11/15 09:51:23;;;;;;;44.15;22.88;;;;;;;6.92;100.00;100507.97;5011327;28;20038;-86
2022/11/15 09:53:53;;;;;;;37.80;20.27;;;;;;;6.96;100.00;100509.38;4995715;28;20060;-85
2022/11/15 09:56:21;;;;;;;39.15;19.85;;;;;;;6.89;100.00;100510.09;4993763;28;20121;-85
2022/11/15 09:59:04;;;;;;;36.97;20.48;;;;;;;7.04;100.00;100513.94;4993219;28;20061;-85
2022/11/15 10:01:36;;;;;;;38.67;21.45;;;;;;;7.01;100.00;100514.25;5010147;28;20037;-86
2022/11/15 10:04:01;;;;;;;37.60;20.08;;;;;;;7.04;100.00;100513.94;5004202;28;20053;-86
2022/11/15 10:06:27;;;;;;;34.23;20.27;;;;;;;7.04;100.00;100513.13;4993091;28;20084;-87
2022/11/15 10:09:11;;;;;;;40.25;21.63;;;;;;;7.10;100.00;100523.16;5010068;28;20033;-87
2022/11/15 10:11:37;;;;;;;37.95;20.20;;;;;;;7.11;100.00;100515.03;4993509;28;20037;-87
2022/11/15 10:14:13;;;;;;;41.05;20.17;;;;;;;7.22;100.00;100516.69;5010278;28;20041;-88
2022/11/15 10:16:57;;;;;;;;;;;;;;;7.19;100.00;100517.81;5010714;28;20034;-88
2022/11/15 10:19:47;;;;;;;35.15;18.00;;;;;;;7.21;100.00;100503.53;4993995;28;19922;-86
2022/11/15 10:22:23;;;;;;;37.40;19.48;;;;;;;7.29;100.00;100515.13;5009643;28;20025;-88
2022/11/15 10:24:52;;;;;;;36.83;19.88;;;;;;;7.32;100.00;100511.31;5010261;28;20117;-87
2022/11/15 10:27:19;;;;;;;35.90;18.50;;;;;;;7.26;100.00;100495.97;4993452;28;20026;-87
2022/11/15 10:29:50;;;;;;;38.10;20.23;;;;;;;7.30;100.00;100508.81;4993635;28;20061;-88
2022/11/15 10:32:20;;;;;;;37.47;19.27;;;;;;;7.32;100.00;100506.84;5013986;28;20569;-87
2022/11/15 10:34:47;;;;;;;31.75;19.27;;;;;;;7.36;100.00;100497.59;5013933;28;20417;-87
2022/11/15 10:37:12;;;;;;;39.33;21.20;;;;;;;7.36;100.00;100486.16;5013299;28;20030;-87
2022/11/15 10:39:38;;;;;;;35.10;19.87;;;;;;;7.37;100.00;100485.16;5012845;28;20562;-87
2022/11/15 10:42:25;;;;;;;37.22;19.90;;;;;;;7.38;100.00;100482.38;5013214;28;20026;-88
2022/11/15 10:44:50;;;;;;;39.28;20.33;;;;;;;7.22;100.00;100489.31;5013273;28;20588;-85
2022/11/15 10:47:28;;;;;;;35.80;21.00;;;;;;;7.31;100.00;100501.69;4996676;28;20049;-86
2022/11/15 10:50:04;;;;;;;36.15;20.92;;;;;;;7.25;100.00;100500.44;4996752;28;20067;-86
2022/11/15 10:52:31;;;;;;;35.53;19.73;;;;;;;7.32;100.00;100506.84;4995840;28;20030;-86
2022/11/15 10:55:11;;;;;;;34.28;20.13;;;;;;;7.16;100.00;100501.31;5004956;28;20030;-87
2022/11/15 10:57:38;;;;;;;35.95;20.33;;;;;;;7.17;100.00;100506.50;4996004;28;20104;-87
2022/11/15 11:00:31;;;;;;;35.70;19.17;;;;;;;7.18;100.00;100510.00;5013091;28;20034;-87
2022/11/15 11:02:58;;;;;;;37.95;19.02;;;;;;;7.22;100.00;100502.56;5012798;28;20046;-85
2022/11/15 11:05:37;;;;;;;40.13;21.52;;;;;;;7.37;100.00;100511.72;4996578;28;20474;-86
2022/11/15 11:08:15;;;;;;;36.90;20.38;;;;;;;7.34;100.00;100509.38;4989588;28;20128;-87
2022/11/15 11:10:57;;;;;;;33.70;19.20;;;;;;;7.40;100.00;100500.81;5012408;28;20045;-86
2022/11/15 11:13:25;;;;;;;36.72;19.75;;;;;;;7.45;100.00;100517.13;5013801;28;20037;-86
2022/11/15 11:16:13;;;;;;;35.97;19.42;;;;;;;7.51;100.00;100503.25;5028820;28;20142;-87
2022/11/15 11:19:12;;;;;;;33.25;19.20;;;;;;;7.56;100.00;100502.81;5001731;28;20410;-87
2022/11/15 11:22:09;;;;;;;35.70;19.05;;;;;;;7.43;100.00;100483.75;5012661;28;20030;-85
2022/11/15 11:25:03;;;;;;;34.42;18.65;;;;;;;7.42;100.00;100482.06;4995031;28;20120;-87
2022/11/15 11:27:59;;;;;;;35.50;18.35;;;;;;;7.55;100.00;100485.19;5012559;28;20033;-87
2022/11/15 11:30:44;;;;;;;31.90;18.17;;;;;;;7.49;100.00;100486.66;5009631;28;20030;-86
2022/11/15 11:33:25;;;;;;;33.40;18.35;;;;;;;7.54;100.00;100486.19;4995898;28;20460;-86
2022/11/15 11:35:55;;;;;;;33.83;17.75;;;;;;;7.72;100.00;100495.00;4995927;28;20080;-83
2022/11/15 11:38:33;;;;;;;37.40;18.08;;;;;;;7.69;100.00;100482.03;5012168;28;20029;-86
2022/11/15 11:41:20;;;;;;;36.35;19.45;;;;;;;7.72;100.00;100480.91;5003837;28;20030;-86
2022/11/15 11:43:55;;;;;;;35.15;18.67;;;;;;;7.81;100.00;100466.69;5011840;28;20686;-87
2022/11/15 11:46:47;;;;;;;33.42;17.58;;;;;;;7.84;100.00;100466.41;5011840;28;20061;-86
2022/11/15 11:49:27;;;;;;;31.15;18.85;;;;;;;7.80;100.00;100457.91;5011509;28;20041;-86
2022/11/15 11:52:01;;;;;;;35.35;18.55;;;;;;;7.79;100.00;100452.72;5011104;28;20498;-86
2022/11/15 11:54:50;;;;;;;31.48;17.25;;;;;;;7.81;100.00;100453.41;5011684;28;20048;-87
2022/11/15 11:57:29;;;;;;;34.35;19.50;;;;;;;7.88;100.00;100465.09;4983574;28;20062;-86
2022/11/15 12:00:02;;;;;;;31.42;18.17;;;;;;;7.85;100.00;100459.28;5011600;28;20069;-87
2022/11/15 12:02:46;;;;;;;28.92;16.17;;;;;;;7.86;100.00;100460.94;5011767;28;20486;-85
2022/11/15 12:05:22;;;;;;;31.73;18.55;;;;;;;7.92;100.00;100449.72;4991790;28;20494;-87
2022/11/15 12:07:51;;;;;;;32.28;17.52;;;;;;;7.92;100.00;100450.53;5011150;28;20064;-86
2022/11/15 12:10:28;;;;;;;30.85;18.05;;;;;;;8.02;100.00;100448.63;4994904;28;20037;-87
2022/11/15 12:13:04;;;;;;;26.05;16.13;;;;;;;8.13;100.00;100460.84;5011330;28;20041;-87
2022/11/15 12:15:43;;;;;;;30.25;16.90;;;;;;;8.15;100.00;100445.59;4994933;28;20037;-87
2022/11/15 12:18:14;;;;;;;27.65;15.57;;;;;;;8.24;100.00;100439.34;5011419;28;20116;-86
2022/11/15 12:20:50;;;;;;;26.75;16.15;;;;;;;8.26;100.00;100431.19;4994662;28;20033;-86
2022/11/15 12:23:47;;;;;;;;;;;;;;;8.41;100.00;100435.00;4995372;28;20133;-88
2022/11/15 12:26:31;;;;;;;25.80;14.77;;;;;;;8.41;100.00;100435.00;4929646;29;19921;-86
2022/11/15 12:29:01;;;;;;;27.75;16.13;;;;;;;8.33;100.00;100421.59;4951493;29;20418;-86
2022/11/15 12:31:35;;;;;;;30.08;15.05;;;;;;;8.41;100.00;100423.53;4951536;29;20067;-87
2022/11/15 12:34:05;;;;;;;28.52;16.67;;;;;;;8.41;100.00;100424.34;4931582;29;20134;-85